createdAt,value
2022-12-01T00:02:45.224Z,102738.91
2022-12-01T00:06:46.997Z,102738.19
2022-12-01T00:10:49.288Z,102733.22
2022-12-01T00:14:55.136Z,102741.53
2022-12-01T00:18:58.903Z,102737.50
2022-12-01T00:23:01.718Z,102736.09
2022-12-01T00:27:03.579Z,102739.06
2022-12-01T00:31:12.348Z,102733.22
2022-12-01T00:35:15.029Z,102741.06
2022-12-01T00:39:16.873Z,102742.00
2022-12-01T00:43:18.546Z,102744.66
2022-12-01T00:47:20.387Z,102747.31
2022-12-01T00:51:22.033Z,102746.38
2022-12-01T00:55:23.666Z,102743.56
2022-12-01T00:59:25.435Z,102747.91
2022-12-01T01:03:28.116Z,102745.28
2022-12-01T01:07:30.195Z,102744.19
2022-12-01T01:11:31.923Z,102751.06
2022-12-01T01:15:33.856Z,102747.47
2022-12-01T01:19:35.600Z,102751.72
2022-12-01T01:23:37.643Z,102759.50
2022-12-01T01:27:39.335Z,102757.72
2022-12-01T01:31:41.147Z,102764.75
2022-12-01T01:35:42.806Z,102766.31
2022-12-01T01:39:44.500Z,102763.50
2022-12-01T01:43:55.966Z,102769.56
2022-12-01T01:48:00.528Z,102768.56
2022-12-01T01:52:04.676Z,102765.91
2022-12-01T01:56:08.899Z,102758.81
2022-12-01T02:00:16.067Z,102764.13
2022-12-01T02:04:20.492Z,102766.75
2022-12-01T02:08:22.356Z,102762.56
2022-12-01T02:13:01.157Z,102758.22
2022-12-01T02:17:44.113Z,102751.19
2022-12-01T02:22:18.460Z,102759.22
2022-12-01T02:26:48.040Z,102754.16
2022-12-01T02:31:04.590Z,102747.13
2022-12-01T02:35:15.528Z,102748.88
2022-12-01T02:39:32.283Z,102750.56
2022-12-01T02:44:02.039Z,102743.59
2022-12-01T02:48:09.209Z,102740.78
2022-12-01T02:52:11.619Z,102747.84
2022-12-01T02:56:16.174Z,102747.00
2022-12-01T03:00:18.500Z,102750.56
2022-12-01T03:04:49.352Z,102742.72
2022-12-01T03:09:06.486Z,102743.72
2022-12-01T03:13:14.248Z,102739.38
2022-12-01T03:17:20.785Z,102750.97
2022-12-01T03:21:31.305Z,102751.22
2022-12-01T03:25:33.056Z,102756.66
2022-12-01T03:29:41.364Z,102751.50
2022-12-01T03:33:48.801Z,102756.94
2022-12-01T03:37:59.297Z,102750.19
2022-12-01T03:42:08.952Z,102746.84
2022-12-01T03:46:33.186Z,102746.97
2022-12-01T03:50:59.740Z,102747.97
2022-12-01T03:55:21.028Z,102740.13
2022-12-01T03:59:24.926Z,102747.28
2022-12-01T04:03:26.894Z,102740.28
2022-12-01T04:07:28.601Z,102749.16
2022-12-01T04:11:48.938Z,102747.50
2022-12-01T04:15:52.074Z,102751.16
2022-12-01T04:19:53.823Z,102745.94
2022-12-01T04:24:01.682Z,102747.59
2022-12-01T04:28:03.433Z,102755.44
2022-12-01T04:32:05.331Z,102749.31
2022-12-01T04:36:07.401Z,102751.00
2022-12-01T04:40:09.963Z,102754.59
2022-12-01T04:44:11.860Z,102751.84
2022-12-01T04:48:13.593Z,102754.50
2022-12-01T04:52:15.472Z,102757.84
2022-12-01T04:56:17.509Z,102741.00
2022-12-01T05:00:19.341Z,102747.94
2022-12-01T05:04:21.207Z,102746.84
2022-12-01T05:08:22.885Z,102758.97
2022-12-01T05:12:24.857Z,102753.53
2022-12-01T05:16:29.239Z,102765.66
2022-12-01T05:20:49.758Z,102762.94
2022-12-01T05:24:51.536Z,102753.38
2022-12-01T05:28:53.213Z,102750.75
2022-12-01T05:32:55.101Z,102773.59
2022-12-01T05:36:56.849Z,102778.09
2022-12-01T05:40:58.575Z,102776.69
2022-12-01T05:45:00.257Z,102781.38
2022-12-01T05:49:01.959Z,102769.00
2022-12-01T05:53:03.613Z,102771.56
2022-12-01T05:57:05.307Z,102774.22
2022-12-01T06:01:07.387Z,102770.56
2022-12-01T06:05:09.937Z,102767.84
2022-12-01T06:09:11.645Z,102771.25
2022-12-01T06:13:13.674Z,102781.84
2022-12-01T06:17:15.396Z,102780.13
2022-12-01T06:21:17.090Z,102781.13
2022-12-01T06:25:18.898Z,102770.56
2022-12-01T06:29:20.643Z,102777.63
2022-12-01T06:33:22.507Z,102778.56
2022-12-01T06:37:24.260Z,102790.84
2022-12-01T06:41:25.961Z,102790.75
2022-12-01T06:45:27.785Z,102789.00
2022-12-01T06:49:29.567Z,102798.56
2022-12-01T06:53:31.372Z,102800.28
2022-12-01T06:57:33.106Z,102806.34
2022-12-01T07:01:34.899Z,102801.06
2022-12-01T07:05:37.059Z,102798.34
2022-12-01T07:09:39.468Z,102805.97
2022-12-01T07:13:42.631Z,102802.22
2022-12-01T07:17:44.298Z,102810.03
2022-12-01T07:21:46.052Z,102810.81
2022-12-01T07:25:47.741Z,102815.94
2022-12-01T07:29:49.718Z,102824.66
2022-12-01T07:33:52.497Z,102824.50
2022-12-01T07:37:56.022Z,102825.38
2022-12-01T07:41:57.701Z,102827.00
2022-12-01T07:46:22.230Z,102841.84
2022-12-01T07:50:25.131Z,102847.09
2022-12-01T07:54:26.985Z,102850.50
2022-12-01T07:58:30.064Z,102854.78
2022-12-01T08:02:31.830Z,102862.66
2022-12-01T08:06:33.707Z,102868.72
2022-12-01T08:10:36.240Z,102862.34
2022-12-01T08:14:37.997Z,102868.50
2022-12-01T08:18:41.214Z,102857.75
2022-12-01T08:22:42.969Z,102865.47
2022-12-01T08:26:44.676Z,102869.75
2022-12-01T08:30:47.341Z,102866.88
2022-12-01T08:34:53.378Z,102866.56
2022-12-01T08:38:56.063Z,102873.41
2022-12-01T08:42:57.900Z,102870.44
2022-12-01T08:46:59.682Z,102876.38
2022-12-01T08:51:03.776Z,102876.03
2022-12-01T08:55:06.648Z,102871.63
2022-12-01T08:59:09.035Z,102872.13
2022-12-01T09:03:10.748Z,102868.56
2022-12-01T09:07:15.127Z,102862.34
2022-12-01T09:11:18.669Z,102863.97
2022-12-01T09:15:20.332Z,102860.28
2022-12-01T09:19:25.070Z,102868.09
2022-12-01T09:23:27.130Z,102865.38
2022-12-01T09:27:28.789Z,102872.03
2022-12-01T09:31:30.852Z,102869.16
2022-12-01T09:35:34.134Z,102868.13
2022-12-01T09:39:35.831Z,102864.56
2022-12-01T09:43:45.813Z,102864.72
2022-12-01T09:47:47.847Z,102867.63
2022-12-01T09:51:52.443Z,102865.88
2022-12-01T09:55:59.270Z,102857.16
2022-12-01T10:00:16.516Z,102860.56
2022-12-01T10:04:29.602Z,102855.28
2022-12-01T10:08:36.625Z,102852.56
2022-12-01T10:12:38.452Z,102842.66
2022-12-01T10:16:51.400Z,102847.81
2022-12-01T10:21:23.431Z,102858.22
2022-12-01T10:25:38.670Z,102847.44
2022-12-01T10:30:00.671Z,102855.16
2022-12-01T10:34:08.104Z,102854.22
2022-12-01T10:38:22.005Z,102847.13
2022-12-01T10:42:37.848Z,102847.88
2022-12-01T10:46:55.736Z,102839.94
2022-12-01T10:51:15.609Z,102846.78
2022-12-01T10:55:23.420Z,102842.16
2022-12-01T10:59:48.628Z,102835.84
2022-12-01T11:04:27.291Z,102839.09
2022-12-01T11:08:39.368Z,102831.75
2022-12-01T11:12:43.346Z,102831.59
2022-12-01T11:16:47.452Z,102824.41
2022-12-01T11:21:14.198Z,102817.97
2022-12-01T11:25:21.796Z,102805.41
2022-12-01T11:29:31.991Z,102801.81
2022-12-01T11:33:44.823Z,102797.28
2022-12-01T11:38:27.717Z,102800.50
2022-12-01T11:42:25.752Z,102796.72
2022-12-01T11:46:50.154Z,102798.06
2022-12-01T11:51:08.157Z,102803.22
2022-12-01T11:55:12.686Z,102794.13
2022-12-01T11:59:25.937Z,102793.00
2022-12-01T12:03:44.808Z,102785.78
2022-12-01T12:08:10.666Z,102786.56
2022-12-01T12:12:29.359Z,102782.97
2022-12-01T12:17:08.844Z,102781.25
2022-12-01T12:21:12.512Z,102783.06
2022-12-01T12:25:47.986Z,102777.94
2022-12-01T12:30:00.883Z,102770.81
2022-12-01T12:34:13.837Z,102781.25
2022-12-01T12:38:24.717Z,102776.69
2022-12-01T12:42:43.642Z,102774.03
2022-12-01T12:46:52.966Z,102770.47
2022-12-01T12:51:09.586Z,102761.56
2022-12-01T12:55:18.886Z,102771.22
2022-12-01T12:59:26.387Z,102775.59
2022-12-01T13:03:59.765Z,102769.41
2022-12-01T13:08:06.948Z,102765.84
2022-12-01T13:12:15.888Z,102773.88
2022-12-01T13:16:22.593Z,102763.25
2022-12-01T13:20:29.943Z,102764.03
2022-12-01T13:24:31.687Z,102756.09
2022-12-01T13:28:55.295Z,102768.41
2022-12-01T13:33:03.984Z,102765.66
2022-12-01T13:37:06.216Z,102763.88
2022-12-01T13:41:13.809Z,102754.16
2022-12-01T13:45:19.253Z,102753.41
2022-12-01T13:49:51.624Z,102749.91
2022-12-01T13:53:53.529Z,102735.88
2022-12-01T13:57:58.350Z,102740.31
2022-12-01T14:02:20.129Z,102738.63
2022-12-01T14:06:24.700Z,102736.91
2022-12-01T14:10:30.600Z,102731.78
2022-12-01T14:14:39.070Z,102737.28
2022-12-01T14:18:44.388Z,102734.69
2022-12-01T14:22:50.440Z,102732.16
2022-12-01T14:26:52.832Z,102739.31
2022-12-01T14:30:54.557Z,102733.16
2022-12-01T14:35:01.497Z,102730.63
2022-12-01T14:39:19.944Z,102736.09
2022-12-01T14:43:40.847Z,102739.88
2022-12-01T14:47:49.494Z,102736.44
2022-12-01T14:51:59.113Z,102734.97
2022-12-01T14:56:18.132Z,102738.66
2022-12-01T15:00:25.125Z,102726.53
2022-12-01T15:04:27.032Z,102724.13
2022-12-01T15:12:54.100Z,102732.53
2022-12-01T15:16:56.381Z,102726.66
2022-12-01T15:21:10.229Z,102726.03
2022-12-01T15:25:15.304Z,102724.50
2022-12-01T15:29:23.825Z,102730.81
2022-12-01T15:33:36.599Z,102733.75
2022-12-01T15:37:44.039Z,102735.81
2022-12-01T15:41:48.367Z,102733.41
2022-12-01T15:45:59.318Z,102731.84
2022-12-01T15:50:01.055Z,102732.03
2022-12-01T15:54:03.733Z,102730.56
2022-12-01T15:58:09.989Z,102736.03
2022-12-01T16:02:20.571Z,102738.88
2022-12-01T16:06:30.019Z,102740.91
2022-12-01T16:10:35.986Z,102739.38
2022-12-01T16:14:50.314Z,102739.47
2022-12-01T16:18:55.696Z,102745.00
2022-12-01T16:23:03.272Z,102749.59
2022-12-01T16:27:16.882Z,102750.78
2022-12-01T16:31:20.057Z,102741.22
2022-12-01T16:35:21.748Z,102750.94
2022-12-01T16:39:23.474Z,102752.75
2022-12-01T16:43:27.717Z,102744.81
2022-12-01T16:47:32.278Z,102730.56
2022-12-01T16:51:54.856Z,102735.94
2022-12-01T16:56:00.487Z,102736.47
2022-12-01T17:00:02.440Z,102731.09
2022-12-01T17:04:07.569Z,102739.03
2022-12-01T17:08:09.721Z,102731.84
2022-12-01T17:12:11.551Z,102729.19
2022-12-01T17:16:18.132Z,102725.88
2022-12-01T17:20:20.386Z,102730.47
2022-12-01T17:24:22.101Z,102732.53
2022-12-01T17:28:23.819Z,102737.03
2022-12-01T17:32:26.432Z,102739.78
2022-12-01T17:36:28.093Z,102734.59
2022-12-01T17:40:29.965Z,102727.72
2022-12-01T17:44:31.688Z,102743.78
2022-12-01T17:48:42.006Z,102728.91
2022-12-01T17:52:43.721Z,102727.28
2022-12-01T17:56:45.598Z,102730.97
2022-12-01T18:00:50.602Z,102718.75
2022-12-01T18:04:52.573Z,102722.34
2022-12-01T18:08:55.016Z,102718.91
2022-12-01T18:12:56.799Z,102718.28
2022-12-01T18:16:58.520Z,102717.66
2022-12-01T18:21:05.650Z,102712.38
2022-12-01T18:25:07.706Z,102720.16
2022-12-01T18:29:18.791Z,102713.16
2022-12-01T18:33:21.049Z,102710.66
2022-12-01T18:37:22.913Z,102716.97
2022-12-01T18:41:25.378Z,102713.47
2022-12-01T18:45:27.048Z,102717.06
2022-12-01T18:49:28.738Z,102723.16
2022-12-01T18:53:30.885Z,102719.56
2022-12-01T18:57:32.675Z,102722.03
2022-12-01T19:01:40.188Z,102717.44
2022-12-01T19:05:42.073Z,102713.84
2022-12-01T19:09:43.793Z,102713.75
2022-12-01T19:13:45.871Z,102713.75
2022-12-01T19:17:47.644Z,102710.94
2022-12-01T19:21:50.462Z,102714.38
2022-12-01T19:25:52.233Z,102713.34
2022-12-01T19:29:54.849Z,102718.56
2022-12-01T19:33:56.831Z,102718.56
2022-12-01T19:37:59.733Z,102721.22
2022-12-01T19:42:01.408Z,102715.13
2022-12-01T19:46:11.927Z,102713.53
2022-12-01T19:50:13.757Z,102716.94
2022-12-01T19:54:20.216Z,102711.53
2022-12-01T19:58:22.238Z,102719.50
2022-12-01T20:02:28.919Z,102723.78
2022-12-01T20:06:33.525Z,102715.78
2022-12-01T20:10:35.161Z,102719.16
2022-12-01T20:14:36.937Z,102704.97
2022-12-01T20:18:39.437Z,102718.84
2022-12-01T20:22:41.181Z,102720.41
2022-12-01T20:26:47.113Z,102722.94
2022-12-01T20:30:48.747Z,102717.66
2022-12-01T20:34:50.881Z,102720.22
2022-12-01T20:38:52.803Z,102719.38
2022-12-01T20:42:54.522Z,102723.78
2022-12-01T20:46:56.988Z,102718.50
2022-12-01T20:51:04.209Z,102714.00
2022-12-01T20:55:06.817Z,102700.84
2022-12-01T20:59:08.592Z,102714.94
2022-12-01T21:03:11.280Z,102711.44
2022-12-01T21:07:12.951Z,102712.28
2022-12-01T21:11:44.476Z,102697.25
2022-12-01T21:15:54.690Z,102686.66
2022-12-01T21:20:01.819Z,102683.06
2022-12-01T21:24:13.729Z,102684.25
2022-12-01T21:28:21.272Z,102680.03
2022-12-01T21:32:33.474Z,102681.09
2022-12-01T21:36:35.221Z,102674.16
2022-12-01T21:40:36.937Z,102676.81
2022-12-01T21:44:39.504Z,102668.09
2022-12-01T21:48:42.341Z,102680.56
2022-12-01T21:52:46.234Z,102664.81
2022-12-01T21:56:58.416Z,102666.72
2022-12-01T22:01:00.883Z,102664.13
2022-12-01T22:05:02.657Z,102670.47
2022-12-01T22:09:22.444Z,102664.50
2022-12-01T22:13:36.158Z,102669.84
2022-12-01T22:17:37.988Z,102665.50
2022-12-01T22:21:44.163Z,102661.91
2022-12-01T22:25:47.566Z,102656.63
2022-12-01T22:29:51.826Z,102662.75
2022-12-01T22:34:02.871Z,102660.22
2022-12-01T22:38:11.009Z,102662.06
2022-12-01T22:42:27.884Z,102663.03
2022-12-01T22:46:34.904Z,102662.25
2022-12-01T22:50:37.365Z,102658.72
2022-12-01T22:54:43.485Z,102651.66
2022-12-01T22:58:45.205Z,102662.25
2022-12-01T23:02:52.450Z,102659.69
2022-12-01T23:07:00.279Z,102662.41
2022-12-01T23:11:01.961Z,102648.56
2022-12-01T23:15:39.486Z,102659.00
2022-12-01T23:19:41.250Z,102655.41
2022-12-01T23:23:43.008Z,102660.69
2022-12-01T23:27:46.953Z,102654.72
2022-12-01T23:31:50.452Z,102640.56
2022-12-01T23:36:01.014Z,102638.66
2022-12-01T23:40:15.149Z,102642.16
2022-12-01T23:44:34.965Z,102640.28
2022-12-01T23:48:49.570Z,102628.91
2022-12-01T23:52:51.932Z,102627.84
2022-12-01T23:56:57.676Z,102623.47
